createdAt,value
2018-06-10T00:00:03.079Z,33.90
2018-06-10T00:02:37.201Z,33.00
2018-06-10T00:05:11.571Z,32.23
2018-06-10T00:07:45.419Z,31.15
2018-06-10T00:10:19.233Z,29.75
2018-06-10T00:12:53.408Z,29.82
2018-06-10T00:15:27.691Z,35.10
2018-06-10T00:18:01.928Z,31.75
2018-06-10T00:20:35.795Z,33.40
2018-06-10T00:23:09.916Z,30.90
2018-06-10T00:25:44.647Z,31.02
2018-06-10T00:28:24.260Z,29.72
2018-06-10T00:30:58.119Z,30.35
2018-06-10T00:33:32.311Z,34.27
2018-06-10T00:36:06.311Z,33.55
2018-06-10T00:38:40.426Z,34.45
2018-06-10T00:41:14.809Z,30.85
2018-06-10T00:43:49.001Z,31.10
2018-06-10T00:46:22.833Z,33.70
2018-06-10T00:48:57.396Z,36.50
2018-06-10T00:51:31.518Z,35.23
2018-06-10T00:54:05.682Z,34.23
2018-06-10T00:56:48.885Z,35.10
2018-06-10T00:59:22.825Z,33.15
2018-06-10T01:01:56.817Z,34.55
2018-06-10T01:04:30.875Z,32.35
2018-06-10T01:07:05.222Z,35.00
2018-06-10T01:09:39.345Z,33.70
2018-06-10T01:12:13.225Z,35.52
2018-06-10T01:14:47.202Z,33.23
2018-06-10T01:17:21.363Z,36.17
2018-06-10T01:19:55.592Z,35.05
2018-06-10T01:22:29.820Z,33.65
2018-06-10T01:25:03.801Z,33.98
2018-06-10T01:27:37.811Z,33.53
2018-06-10T01:30:12.000Z,29.65
2018-06-10T01:32:45.952Z,25.45
2018-06-10T01:35:20.006Z,26.40
2018-06-10T01:37:53.697Z,27.85
2018-06-10T01:40:27.725Z,28.98
2018-06-10T01:43:01.882Z,32.23
2018-06-10T01:45:36.032Z,31.02
2018-06-10T01:48:10.377Z,35.20
2018-06-10T01:50:44.195Z,38.40
2018-06-10T01:53:25.191Z,40.50
2018-06-10T01:55:59.610Z,47.98
2018-06-10T01:58:33.893Z,47.70
2018-06-10T02:01:08.403Z,49.25
2018-06-10T02:03:42.582Z,54.15
2018-06-10T02:06:16.512Z,54.77
2018-06-10T02:08:50.541Z,48.68
2018-06-10T02:11:24.939Z,40.00
2018-06-10T02:13:59.102Z,51.73
2018-06-10T02:16:33.066Z,52.85
2018-06-10T02:19:07.025Z,49.73
2018-06-10T02:21:41.412Z,45.90
2018-06-10T02:24:15.307Z,45.67
2018-06-10T02:26:49.230Z,47.17
2018-06-10T02:29:23.066Z,43.08
2018-06-10T02:31:57.832Z,47.17
2018-06-10T02:34:31.983Z,46.42
2018-06-10T02:37:06.113Z,40.35
2018-06-10T02:39:40.218Z,45.48
2018-06-10T02:42:14.366Z,49.10
2018-06-10T02:44:53.001Z,48.90
2018-06-10T02:47:26.921Z,39.73
2018-06-10T02:50:00.997Z,47.38
2018-06-10T02:52:35.009Z,42.43
2018-06-10T02:55:09.127Z,40.43
2018-06-10T02:57:42.994Z,44.67
2018-06-10T03:00:17.271Z,43.73
2018-06-10T03:02:51.136Z,38.58
2018-06-10T03:05:25.334Z,36.50
2018-06-10T03:07:59.862Z,39.70
2018-06-10T03:10:33.863Z,43.20
2018-06-10T03:13:08.015Z,39.63
2018-06-10T03:15:42.286Z,37.83
2018-06-10T03:18:16.444Z,35.52
2018-06-10T03:20:50.654Z,34.85
2018-06-10T03:23:24.630Z,33.73
2018-06-10T03:25:58.771Z,32.73
2018-06-10T03:28:32.772Z,33.08
2018-06-10T03:31:06.801Z,34.18
2018-06-10T03:33:40.967Z,29.98
2018-06-10T03:36:14.878Z,31.68
2018-06-10T03:38:49.068Z,33.83
2018-06-10T03:41:23.138Z,35.68
2018-06-10T03:43:57.153Z,35.85
2018-06-10T03:46:31.232Z,40.63
2018-06-10T03:49:05.451Z,39.33
2018-06-10T03:51:39.722Z,43.63
2018-06-10T03:54:13.969Z,40.88
2018-06-10T03:56:48.156Z,41.58
2018-06-10T03:59:22.192Z,42.00
2018-06-10T04:01:56.181Z,43.05
2018-06-10T04:04:30.141Z,41.15
2018-06-10T04:07:04.264Z,38.40
2018-06-10T04:09:38.231Z,35.23
2018-06-10T04:12:12.481Z,33.08
2018-06-10T04:14:46.592Z,32.95
2018-06-10T04:17:20.807Z,30.92
2018-06-10T04:19:55.427Z,26.62
2018-06-10T04:22:29.527Z,26.48
2018-06-10T04:25:03.845Z,26.65
2018-06-10T04:27:38.102Z,24.15
2018-06-10T04:30:12.719Z,25.15
2018-06-10T04:32:47.071Z,25.62
2018-06-10T04:35:22.106Z,27.52
2018-06-10T04:37:56.315Z,29.12
2018-06-10T04:40:30.448Z,31.17
2018-06-10T04:43:04.443Z,31.97
2018-06-10T04:45:38.326Z,31.12
2018-06-10T04:48:12.627Z,31.90
2018-06-10T04:50:51.148Z,33.30
2018-06-10T04:53:30.149Z,33.95
2018-06-10T04:56:04.363Z,33.63
2018-06-10T04:58:38.517Z,33.00
2018-06-10T05:01:12.686Z,33.10
2018-06-10T05:03:46.711Z,34.40
2018-06-10T05:06:20.481Z,34.53
2018-06-10T05:08:54.487Z,31.42
2018-06-10T05:11:28.639Z,31.30
2018-06-10T05:14:02.768Z,34.58
2018-06-10T05:16:37.228Z,33.05
2018-06-10T05:19:15.754Z,34.53
2018-06-10T05:21:49.547Z,34.03
2018-06-10T05:24:23.706Z,33.85
2018-06-10T05:26:57.906Z,32.17
2018-06-10T05:29:32.114Z,30.48
2018-06-10T05:32:06.391Z,33.42
2018-06-10T05:34:40.363Z,35.20
2018-06-10T05:37:14.573Z,35.05
2018-06-10T05:39:48.319Z,34.18
2018-06-10T05:42:22.287Z,32.42
2018-06-10T05:44:56.371Z,33.58
2018-06-10T05:47:30.658Z,32.33
2018-06-10T05:50:04.953Z,33.10
2018-06-10T05:52:38.690Z,33.95
2018-06-10T05:55:13.506Z,34.88
2018-06-10T05:57:47.304Z,32.67
2018-06-10T06:00:21.606Z,34.58
2018-06-10T06:02:55.672Z,32.95
2018-06-10T06:05:30.283Z,33.35
2018-06-10T06:08:05.367Z,32.03
2018-06-10T06:10:39.322Z,31.95
2018-06-10T06:13:13.661Z,31.97
2018-06-10T06:15:48.053Z,32.58
2018-06-10T06:18:22.147Z,36.80
2018-06-10T06:20:56.078Z,36.33
2018-06-10T06:23:30.382Z,33.20
2018-06-10T06:26:05.107Z,36.03
2018-06-10T06:28:39.102Z,33.23
2018-06-10T06:31:13.417Z,34.83
2018-06-10T06:33:47.852Z,34.55
2018-06-10T06:36:22.139Z,31.62
2018-06-10T06:39:00.668Z,33.85
2018-06-10T06:41:34.861Z,33.73
2018-06-10T06:44:08.594Z,31.15
2018-06-10T06:46:42.803Z,31.95
2018-06-10T06:49:16.848Z,29.77
2018-06-10T06:51:50.871Z,31.70
2018-06-10T06:54:25.163Z,31.07
2018-06-10T06:56:59.461Z,30.75
2018-06-10T06:59:34.201Z,32.40
2018-06-10T07:02:08.591Z,32.48
2018-06-10T07:04:42.978Z,32.80
2018-06-10T07:07:17.511Z,33.78
2018-06-10T07:09:51.507Z,32.25
2018-06-10T07:12:25.575Z,32.98
2018-06-10T07:14:59.924Z,31.17
2018-06-10T07:17:34.023Z,32.98
2018-06-10T07:20:12.662Z,34.00
2018-06-10T07:22:46.593Z,32.35
2018-06-10T07:25:20.702Z,34.38
2018-06-10T07:27:54.791Z,35.75
2018-06-10T07:30:29.267Z,36.65
2018-06-10T07:33:03.433Z,33.98
2018-06-10T07:35:37.442Z,32.15
2018-06-10T07:38:16.174Z,31.93
2018-06-10T07:40:50.076Z,30.35
2018-06-10T07:43:23.922Z,27.13
2018-06-10T07:45:57.963Z,27.98
2018-06-10T07:48:32.292Z,28.12
2018-06-10T07:51:06.333Z,26.80
2018-06-10T07:53:40.539Z,26.85
2018-06-10T07:56:15.048Z,27.50
2018-06-10T07:58:48.860Z,25.70
2018-06-10T08:01:22.664Z,22.20
2018-06-10T08:03:56.668Z,23.18
2018-06-10T08:06:31.368Z,23.95
2018-06-10T08:09:06.976Z,23.18
2018-06-10T08:11:40.924Z,23.40
2018-06-10T08:14:14.985Z,23.35
2018-06-10T08:16:49.102Z,21.45
2018-06-10T08:19:23.354Z,21.33
2018-06-10T08:21:57.292Z,20.08
2018-06-10T08:24:31.223Z,20.82
2018-06-10T08:27:05.576Z,18.82
2018-06-10T08:29:39.647Z,17.17
2018-06-10T08:32:13.623Z,16.45
2018-06-10T08:34:47.747Z,16.27
2018-06-10T08:37:21.814Z,18.55
2018-06-10T08:39:55.920Z,18.57
2018-06-10T08:42:30.777Z,22.80
2018-06-10T08:45:05.361Z,20.68
2018-06-10T08:47:39.463Z,20.82
2018-06-10T08:50:13.585Z,21.95
2018-06-10T08:52:47.618Z,19.98
2018-06-10T08:55:22.240Z,18.12
2018-06-10T08:57:56.403Z,18.10
2018-06-10T09:00:30.793Z,17.82
2018-06-10T09:03:05.228Z,17.17
2018-06-10T09:05:39.479Z,20.00
2018-06-10T09:08:17.671Z,17.82
2018-06-10T09:10:51.497Z,18.77
2018-06-10T09:13:25.748Z,18.52
2018-06-10T09:16:04.246Z,15.13
2018-06-10T09:18:38.092Z,17.27
2018-06-10T09:21:12.361Z,16.32
2018-06-10T09:23:46.355Z,15.65
2018-06-10T09:26:20.598Z,17.00
2018-06-10T09:28:55.141Z,15.28
2018-06-10T09:31:35.823Z,15.25
2018-06-10T09:34:09.915Z,15.65
2018-06-10T09:36:43.924Z,16.80
2018-06-10T09:39:17.993Z,14.80
2018-06-10T09:41:52.219Z,15.15
2018-06-10T09:44:26.715Z,15.72
2018-06-10T09:47:03.130Z,15.15
2018-06-10T09:49:37.690Z,14.20
2018-06-10T09:52:11.793Z,15.18
2018-06-10T09:54:45.752Z,14.93
2018-06-10T09:57:20.399Z,14.35
2018-06-10T09:59:55.074Z,14.70
2018-06-10T10:02:28.967Z,14.98
2018-06-10T10:05:03.132Z,14.70
2018-06-10T10:07:37.258Z,15.95
2018-06-10T10:10:11.459Z,17.77
2018-06-10T10:12:45.734Z,17.30
2018-06-10T10:15:19.598Z,16.90
2018-06-10T10:17:53.937Z,16.30
2018-06-10T10:20:28.228Z,17.55
2018-06-10T10:23:02.614Z,17.07
2018-06-10T10:25:36.629Z,18.90
2018-06-10T10:28:10.571Z,20.37
2018-06-10T10:30:44.884Z,19.70
2018-06-10T10:33:19.219Z,19.98
2018-06-10T10:35:53.365Z,19.23
2018-06-10T10:38:27.732Z,19.15
2018-06-10T10:41:02.074Z,19.52
2018-06-10T10:43:37.047Z,18.40
2018-06-10T10:46:15.328Z,18.70
2018-06-10T10:48:49.630Z,19.05
2018-06-10T10:51:23.998Z,17.50
2018-06-10T10:53:58.153Z,16.55
2018-06-10T10:56:32.484Z,17.25
2018-06-10T10:59:06.353Z,16.65
2018-06-10T11:01:40.701Z,16.48
2018-06-10T11:04:14.670Z,15.70
2018-06-10T11:06:48.664Z,15.15
2018-06-10T11:09:22.877Z,17.92
2018-06-10T11:11:57.122Z,19.40
2018-06-10T11:14:37.754Z,21.87
2018-06-10T11:17:12.189Z,22.27
2018-06-10T11:19:46.337Z,21.10
2018-06-10T11:22:20.585Z,19.52
2018-06-10T11:24:54.770Z,20.75
2018-06-10T11:27:28.934Z,20.27
2018-06-10T11:30:03.335Z,18.10
2018-06-10T11:32:37.713Z,17.27
2018-06-10T11:35:12.468Z,17.12
2018-06-10T11:37:46.526Z,17.77
2018-06-10T11:40:20.611Z,17.30
2018-06-10T11:42:54.523Z,16.73
2018-06-10T11:45:28.316Z,14.50
2018-06-10T11:48:02.654Z,16.25
2018-06-10T11:50:37.393Z,17.17
2018-06-10T11:53:11.684Z,14.68
2018-06-10T11:55:46.362Z,12.45
2018-06-10T11:58:20.307Z,12.70
2018-06-10T12:00:54.401Z,12.28
2018-06-10T12:03:28.303Z,12.20
2018-06-10T12:06:02.626Z,11.38
2018-06-10T12:08:36.863Z,10.80
2018-06-10T12:11:10.748Z,10.53
2018-06-10T12:13:45.128Z,10.75
2018-06-10T12:16:19.313Z,10.03
2018-06-10T12:18:53.389Z,9.30
2018-06-10T12:21:27.549Z,8.93
2018-06-10T12:24:01.748Z,9.23
2018-06-10T12:26:35.843Z,9.33
2018-06-10T12:29:10.024Z,9.68
2018-06-10T12:31:44.103Z,9.60
2018-06-10T12:34:18.297Z,9.33
2018-06-10T12:36:52.472Z,10.15
2018-06-10T12:39:26.728Z,10.05
2018-06-10T12:42:01.632Z,8.93
2018-06-10T12:44:35.607Z,10.18
2018-06-10T12:47:09.542Z,9.38
2018-06-10T12:49:43.913Z,9.55
2018-06-10T12:52:18.408Z,10.05
2018-06-10T12:54:53.134Z,9.48
2018-06-10T12:57:27.193Z,9.73
2018-06-10T13:00:01.445Z,11.08
2018-06-10T13:02:35.907Z,10.40
2018-06-10T13:05:09.948Z,9.83
2018-06-10T13:07:44.080Z,8.45
2018-06-10T13:10:18.518Z,9.38
2018-06-10T13:12:52.747Z,9.90
2018-06-10T13:15:26.758Z,10.88
2018-06-10T13:18:00.651Z,13.03
2018-06-10T13:20:35.178Z,11.33
2018-06-10T13:23:09.703Z,12.15
2018-06-10T13:25:43.854Z,11.43
2018-06-10T13:28:17.891Z,11.35
2018-06-10T13:30:52.344Z,10.85
2018-06-10T13:33:27.605Z,11.30
2018-06-10T13:36:01.969Z,12.37
2018-06-10T13:38:36.291Z,12.63
2018-06-10T13:41:10.364Z,10.48
2018-06-10T13:43:44.488Z,10.60
2018-06-10T13:46:18.562Z,10.15
2018-06-10T13:48:52.701Z,10.53
2018-06-10T13:51:27.120Z,11.35
2018-06-10T13:54:01.168Z,10.38
2018-06-10T13:56:35.337Z,9.85
2018-06-10T13:59:09.446Z,10.43
2018-06-10T14:01:43.822Z,10.20
2018-06-10T14:04:17.967Z,11.22
2018-06-10T14:06:52.210Z,9.75
2018-06-10T14:09:26.394Z,10.43
2018-06-10T14:12:00.851Z,11.57
2018-06-10T14:14:34.656Z,12.37
2018-06-10T14:17:09.226Z,10.55
2018-06-10T14:19:43.675Z,10.90
2018-06-10T14:22:17.915Z,11.30
2018-06-10T14:24:52.148Z,11.70
2018-06-10T14:27:26.688Z,11.65
2018-06-10T14:30:01.054Z,10.72
2018-06-10T14:32:35.341Z,12.95
2018-06-10T14:35:09.493Z,13.13
2018-06-10T14:37:44.767Z,13.13
2018-06-10T14:40:18.810Z,12.43
2018-06-10T14:42:53.425Z,13.83
2018-06-10T14:45:27.667Z,10.95
2018-06-10T14:48:01.829Z,12.33
2018-06-10T14:50:36.242Z,12.47
2018-06-10T14:53:10.470Z,13.22
2018-06-10T14:55:44.764Z,11.85
2018-06-10T14:58:18.741Z,13.10
2018-06-10T15:00:52.608Z,13.85
2018-06-10T15:03:26.861Z,13.20
2018-06-10T15:06:01.111Z,12.50
2018-06-10T15:08:35.225Z,13.45
2018-06-10T15:11:09.658Z,11.78
2018-06-10T15:13:43.811Z,14.13
2018-06-10T15:16:18.053Z,12.70
2018-06-10T15:18:52.730Z,12.50
2018-06-10T15:21:27.413Z,11.73
2018-06-10T15:24:02.010Z,11.90
2018-06-10T15:26:36.016Z,12.15
2018-06-10T15:29:10.183Z,11.73
2018-06-10T15:31:44.264Z,12.23
2018-06-10T15:34:18.015Z,12.58
2018-06-10T15:36:52.496Z,11.10
2018-06-10T15:39:27.450Z,10.43
2018-06-10T15:42:02.441Z,11.90
2018-06-10T15:44:37.974Z,10.55
2018-06-10T15:47:12.606Z,11.15
2018-06-10T15:49:47.108Z,11.60
2018-06-10T15:52:21.220Z,12.20
2018-06-10T15:54:55.153Z,15.23
2018-06-10T15:57:29.522Z,15.10
2018-06-10T16:00:03.615Z,16.37
2018-06-10T16:02:37.668Z,15.90
2018-06-10T16:05:11.888Z,14.23
2018-06-10T16:07:46.030Z,14.68
2018-06-10T16:10:19.909Z,14.33
2018-06-10T16:12:54.234Z,12.82
2018-06-10T16:15:28.401Z,12.35
2018-06-10T16:18:02.489Z,11.50
2018-06-10T16:20:36.694Z,11.93
2018-06-10T16:23:10.619Z,10.25
2018-06-10T16:25:44.784Z,9.20
2018-06-10T16:28:19.183Z,7.37
2018-06-10T16:30:53.611Z,7.55
2018-06-10T16:33:28.077Z,7.50
2018-06-10T16:36:02.124Z,7.60
2018-06-10T16:38:36.686Z,7.28
2018-06-10T16:41:14.996Z,6.80
2018-06-10T16:43:49.171Z,6.85
2018-06-10T16:46:23.216Z,7.55
2018-06-10T16:48:57.750Z,7.22
2018-06-10T16:51:31.991Z,7.03
2018-06-10T16:54:06.158Z,7.12
2018-06-10T16:56:40.150Z,7.47
2018-06-10T16:59:14.207Z,7.20
2018-06-10T17:01:48.279Z,8.63
2018-06-10T17:04:22.326Z,8.60
2018-06-10T17:06:56.669Z,9.05
2018-06-10T17:09:30.808Z,9.85
2018-06-10T17:12:04.959Z,9.10
2018-06-10T17:14:39.227Z,9.70
2018-06-10T17:17:13.815Z,9.83
2018-06-10T17:19:48.415Z,10.15
2018-06-10T17:22:22.764Z,10.68
2018-06-10T17:24:57.319Z,9.73
2018-06-10T17:27:31.768Z,10.95
2018-06-10T17:30:05.977Z,10.48
2018-06-10T17:32:40.294Z,11.33
2018-06-10T17:35:14.575Z,12.37
2018-06-10T17:37:49.047Z,11.18
2018-06-10T17:40:23.469Z,12.05
2018-06-10T17:42:57.763Z,11.85
2018-06-10T17:45:32.184Z,10.78
2018-06-10T17:48:07.270Z,11.38
2018-06-10T17:50:41.671Z,11.70
2018-06-10T17:53:16.507Z,11.30
2018-06-10T17:55:50.714Z,10.95
2018-06-10T17:58:24.983Z,11.45
2018-06-10T18:00:59.193Z,12.07
2018-06-10T18:03:33.772Z,12.05
2018-06-10T18:06:08.111Z,11.68
2018-06-10T18:08:42.455Z,11.20
2018-06-10T18:11:16.624Z,11.83
2018-06-10T18:13:51.208Z,11.78
2018-06-10T18:16:25.558Z,12.20
2018-06-10T18:19:00.339Z,12.28
2018-06-10T18:21:34.326Z,11.68
2018-06-10T18:24:08.516Z,12.65
2018-06-10T18:26:42.829Z,12.90
2018-06-10T18:29:17.057Z,11.93
2018-06-10T18:31:51.323Z,12.28
2018-06-10T18:34:25.363Z,12.33
2018-06-10T18:36:59.658Z,11.33
2018-06-10T18:39:33.786Z,10.68
2018-06-10T18:42:08.126Z,11.05
2018-06-10T18:44:42.794Z,11.43
2018-06-10T18:47:17.061Z,11.78
2018-06-10T18:49:51.549Z,11.25
2018-06-10T18:52:25.622Z,10.80
2018-06-10T18:55:00.293Z,11.43
2018-06-10T18:57:34.576Z,11.20
2018-06-10T19:00:08.808Z,11.22
2018-06-10T19:02:43.226Z,12.13
2018-06-10T19:05:17.978Z,11.73
2018-06-10T19:07:52.646Z,11.50
2018-06-10T19:10:27.765Z,11.95
2018-06-10T19:13:02.679Z,12.90
2018-06-10T19:15:37.201Z,11.63
2018-06-10T19:18:12.212Z,12.68
2018-06-10T19:20:46.747Z,12.58
2018-06-10T19:23:22.074Z,12.37
2018-06-10T19:25:56.902Z,12.43
2018-06-10T19:28:31.625Z,12.58
2018-06-10T19:31:06.644Z,12.23
2018-06-10T19:33:41.374Z,11.85
2018-06-10T19:36:16.217Z,11.88
2018-06-10T19:38:51.253Z,13.00
2018-06-10T19:41:26.016Z,12.60
2018-06-10T19:44:00.546Z,13.00
2018-06-10T19:46:35.346Z,11.78
2018-06-10T19:49:09.712Z,12.70
2018-06-10T19:51:44.526Z,12.28
2018-06-10T19:54:19.268Z,12.58
2018-06-10T19:56:54.098Z,12.35
2018-06-10T19:59:29.082Z,12.75
2018-06-10T20:02:04.230Z,13.68
2018-06-10T20:04:38.344Z,13.38
2018-06-10T20:07:12.784Z,12.75
2018-06-10T20:09:46.623Z,12.95
2018-06-10T20:12:20.755Z,13.40
2018-06-10T20:14:55.294Z,13.55
2018-06-10T20:17:29.566Z,12.58
2018-06-10T20:20:03.981Z,13.72
2018-06-10T20:22:38.851Z,14.45
2018-06-10T20:25:12.881Z,14.53
2018-06-10T20:27:47.135Z,13.35
2018-06-10T20:30:21.319Z,14.85
2018-06-10T20:32:55.465Z,14.25
2018-06-10T20:35:29.565Z,14.70
2018-06-10T20:38:03.764Z,14.47
2018-06-10T20:40:45.898Z,15.23
2018-06-10T20:43:20.072Z,15.58
2018-06-10T20:45:59.852Z,15.68
2018-06-10T20:48:34.236Z,15.50
2018-06-10T20:51:08.276Z,14.93
2018-06-10T20:53:42.875Z,15.32
2018-06-10T20:56:17.622Z,14.10
2018-06-10T20:58:52.253Z,14.03
2018-06-10T21:01:26.517Z,15.28
2018-06-10T21:04:01.029Z,13.85
2018-06-10T21:06:35.304Z,13.70
2018-06-10T21:09:09.433Z,14.45
2018-06-10T21:11:43.871Z,14.30
2018-06-10T21:14:23.087Z,15.08
2018-06-10T21:16:57.632Z,14.95
2018-06-10T21:19:32.420Z,15.18
2018-06-10T21:22:07.172Z,12.98
2018-06-10T21:24:41.449Z,15.23
2018-06-10T21:27:15.533Z,14.18
2018-06-10T21:29:49.599Z,13.55
2018-06-10T21:32:23.895Z,14.65
2018-06-10T21:34:58.076Z,14.93
2018-06-10T21:37:31.928Z,14.50
2018-06-10T21:40:06.115Z,14.28
2018-06-10T21:42:40.071Z,15.93
2018-06-10T21:45:14.304Z,14.70
2018-06-10T21:47:48.401Z,16.10
2018-06-10T21:50:23.126Z,15.50
2018-06-10T21:52:57.208Z,15.28
2018-06-10T21:55:31.250Z,16.32
2018-06-10T21:58:05.337Z,16.10
2018-06-10T22:00:39.321Z,16.60
2018-06-10T22:03:13.781Z,16.35
2018-06-10T22:05:47.802Z,16.48
2018-06-10T22:08:21.939Z,17.25
2018-06-10T22:10:55.849Z,15.80
2018-06-10T22:13:29.969Z,16.85
2018-06-10T22:16:04.237Z,17.77
2018-06-10T22:18:38.619Z,18.23
2018-06-10T22:21:12.958Z,18.32
2018-06-10T22:23:46.852Z,16.87
2018-06-10T22:26:20.954Z,17.77
2018-06-10T22:28:55.435Z,19.05
2018-06-10T22:31:29.553Z,17.62
2018-06-10T22:34:03.959Z,18.05
2018-06-10T22:36:37.696Z,18.02
2018-06-10T22:39:12.246Z,18.52
2018-06-10T22:41:46.200Z,17.80
2018-06-10T22:44:20.265Z,17.77
2018-06-10T22:46:54.247Z,18.50
2018-06-10T22:49:28.539Z,18.35
2018-06-10T22:52:02.889Z,19.25
2018-06-10T22:54:38.609Z,19.27
2018-06-10T22:57:13.236Z,18.95
2018-06-10T22:59:47.402Z,17.95
2018-06-10T23:02:21.299Z,18.27
2018-06-10T23:04:55.289Z,17.90
2018-06-10T23:07:29.330Z,16.02
2018-06-10T23:10:03.399Z,18.42
2018-06-10T23:12:37.306Z,18.20
2018-06-10T23:15:11.541Z,18.20
2018-06-10T23:17:45.544Z,17.67
2018-06-10T23:20:19.527Z,18.05
2018-06-10T23:22:53.549Z,17.92
2018-06-10T23:25:27.562Z,17.37
2018-06-10T23:28:01.339Z,16.75
2018-06-10T23:30:35.325Z,17.00
2018-06-10T23:33:09.475Z,17.70
2018-06-10T23:35:44.076Z,16.82
2018-06-10T23:38:18.134Z,17.42
2018-06-10T23:40:51.825Z,17.87
2018-06-10T23:43:25.709Z,18.42
2018-06-10T23:45:59.495Z,18.75
2018-06-10T23:48:34.069Z,17.60
2018-06-10T23:51:07.790Z,18.87
2018-06-10T23:53:41.800Z,17.73
2018-06-10T23:56:15.610Z,18.50
2018-06-10T23:58:49.681Z,19.10
